Time;durP1;ratioP1;P1;durP2;ratioP2;P2;SDS_P1;SDS_P2;PMS_P1;PMS_P2;Temp;Humidity;BMP_temperature;BMP_pressure;BME280_temperature;BME280_humidity;BME280_pressure;Samples;Min_cycle;Max_cycle;Signal;HPM_P1;HPM_P2
2022/12/10 00:01:51;;;;;;;46.05;26.20;;;;;;;;;;5041732;28;20224;-68
2022/12/10 00:04:18;;;;;;;43.70;26.85;;;;;;;;;;5041766;27;20198;-68
2022/12/10 00:06:44;;;;;;;43.90;27.50;;;;;;;;;;5041597;28;20205;-68
2022/12/10 00:09:11;;;;;;;39.95;25.20;;;;;;;;;;5041338;28;20223;-68
2022/12/10 00:11:38;;;;;;;39.72;24.92;;;;;;;;;;5041748;27;20198;-68
2022/12/10 00:14:06;;;;;;;43.45;26.30;;;;;;;;;;5041712;28;20204;-68
2022/12/10 00:16:33;;;;;;;43.35;25.70;;;;;;;;;;5041634;28;20204;-68
2022/12/10 00:18:59;;;;;;;42.63;25.58;;;;;;;;;;5041339;28;20205;-68
2022/12/10 00:21:27;;;;;;;41.10;25.15;;;;;;;;;;5041593;28;20229;-68
2022/12/10 00:23:53;;;;;;;41.75;26.17;;;;;;;;;;5041313;28;20200;-68
2022/12/10 00:26:20;;;;;;;38.78;24.02;;;;;;;;;;5041106;28;20197;-68
2022/12/10 00:28:47;;;;;;;41.70;25.23;;;;;;;;;;5041545;28;20218;-68
2022/12/10 00:31:15;;;;;;;42.55;25.75;;;;;;;;;;5041314;28;20205;-68
2022/12/10 00:33:42;;;;;;;45.15;26.42;;;;;;;;;;5041181;28;20391;-68
2022/12/10 00:36:10;;;;;;;42.40;24.83;;;;;;;;;;5041249;28;20580;-68
2022/12/10 00:38:37;;;;;;;35.83;23.65;;;;;;;;;;5040878;28;20206;-68
2022/12/10 00:41:03;;;;;;;42.50;24.48;;;;;;;;;;5040924;28;20208;-68
2022/12/10 00:43:30;;;;;;;40.33;25.42;;;;;;;;;;5040990;28;20218;-68
2022/12/10 00:45:56;;;;;;;39.65;24.33;;;;;;;;;;5041236;27;20548;-68
2022/12/10 00:48:24;;;;;;;41.60;25.48;;;;;;;;;;5040762;28;20498;-68
2022/12/10 00:50:57;;;;;;;44.42;25.88;;;;;;;;;;5040897;28;20202;-68
2022/12/10 00:53:24;;;;;;;41.97;24.42;;;;;;;;;;5041030;28;20198;-68
2022/12/10 00:55:51;;;;;;;37.80;23.67;;;;;;;;;;5041034;28;20505;-68
2022/12/10 00:58:17;;;;;;;40.58;25.15;;;;;;;;;;5040895;28;20198;-68
2022/12/10 01:00:43;;;;;;;42.28;25.00;;;;;;;;;;5040868;28;20204;-68
2022/12/10 01:03:10;;;;;;;36.50;24.30;;;;;;;;;;5040801;28;20222;-68
2022/12/10 01:05:37;;;;;;;36.35;22.20;;;;;;;;;;5040800;28;20204;-68
2022/12/10 01:08:04;;;;;;;37.08;23.63;;;;;;;;;;5040480;28;20202;-68
2022/12/10 01:10:30;;;;;;;35.78;23.42;;;;;;;;;;5040868;28;20202;-68
2022/12/10 01:12:56;;;;;;;38.25;23.55;;;;;;;;;;5040721;28;20194;-68
2022/12/10 01:15:23;;;;;;;38.88;23.95;;;;;;;;;;5040554;28;20197;-68
2022/12/10 01:17:49;;;;;;;35.15;23.08;;;;;;;;;;5040108;28;20198;-68
2022/12/10 01:20:15;;;;;;;35.47;22.65;;;;;;;;;;5040446;28;20206;-68
2022/12/10 01:22:43;;;;;;;37.58;23.23;;;;;;;;;;5040511;28;20222;-68
2022/12/10 01:25:09;;;;;;;36.85;23.85;;;;;;;;;;5040407;28;20212;-68
2022/12/10 01:27:36;;;;;;;40.92;24.30;;;;;;;;;;5040249;28;20224;-68
2022/12/10 01:30:02;;;;;;;36.88;23.48;;;;;;;;;;5040353;28;20208;-68
2022/12/10 01:32:28;;;;;;;38.13;24.10;;;;;;;;;;5040406;28;20201;-68
2022/12/10 01:34:54;;;;;;;36.20;23.65;;;;;;;;;;5040591;28;20212;-68
2022/12/10 01:37:21;;;;;;;40.75;23.90;;;;;;;;;;5039723;28;20197;-68
2022/12/10 01:39:48;;;;;;;38.60;24.83;;;;;;;;;;5040211;28;20204;-68
2022/12/10 01:42:15;;;;;;;38.05;23.65;;;;;;;;;;5040079;28;20281;-68
2022/12/10 01:45:01;;;;;;;38.65;23.95;;;;;;;;;;5040123;28;20390;-68
2022/12/10 01:47:27;;;;;;;39.08;23.95;;;;;;;;;;5040023;28;20474;-68
2022/12/10 01:49:54;;;;;;;35.95;22.83;;;;;;;;;;5039915;28;20198;-68
2022/12/10 01:52:20;;;;;;;36.70;23.10;;;;;;;;;;5040211;28;20197;-68
2022/12/10 01:54:47;;;;;;;36.47;22.13;;;;;;;;;;5040073;28;20407;-68
2022/12/10 01:57:15;;;;;;;32.13;22.05;;;;;;;;;;5039994;28;20204;-68
2022/12/10 01:59:42;;;;;;;39.15;22.42;;;;;;;;;;5039686;28;20197;-68
2022/12/10 02:02:12;;;;;;;33.40;21.80;;;;;;;;;;5039942;28;20204;-68
2022/12/10 02:04:43;;;;;;;34.13;22.27;;;;;;;;;;5040055;28;20197;-68
2022/12/10 02:07:11;;;;;;;35.90;22.83;;;;;;;;;;5039808;28;20197;-68
2022/12/10 02:09:43;;;;;;;35.08;22.40;;;;;;;;;;5039421;28;20198;-68
2022/12/10 02:12:12;;;;;;;36.42;23.48;;;;;;;;;;5039692;28;20232;-68
2022/12/10 02:14:44;;;;;;;34.78;22.45;;;;;;;;;;5039856;28;20527;-68
2022/12/10 02:17:14;;;;;;;36.47;22.92;;;;;;;;;;5039521;28;20204;-68
2022/12/10 02:19:47;;;;;;;35.42;22.27;;;;;;;;;;5039174;28;20455;-68
2022/12/10 02:22:14;;;;;;;36.42;21.80;;;;;;;;;;5039402;28;20204;-68
2022/12/10 02:24:41;;;;;;;37.45;22.67;;;;;;;;;;5039519;28;20198;-68
2022/12/10 02:27:11;;;;;;;35.55;22.50;;;;;;;;;;5039723;28;20197;-68
2022/12/10 02:29:39;;;;;;;37.15;22.35;;;;;;;;;;5039421;28;20236;-68
2022/12/10 02:32:07;;;;;;;34.42;22.63;;;;;;;;;;5039443;28;20206;-68
2022/12/10 02:34:36;;;;;;;34.33;21.80;;;;;;;;;;5039430;28;20201;-68
2022/12/10 02:37:04;;;;;;;34.53;22.15;;;;;;;;;;5039294;28;20206;-68
2022/12/10 02:39:36;;;;;;;30.50;20.95;;;;;;;;;;5039322;28;20198;-68
2022/12/10 02:42:04;;;;;;;38.40;22.80;;;;;;;;;;5039763;28;20209;-68
2022/12/10 02:44:31;;;;;;;33.80;20.95;;;;;;;;;;5038605;28;20194;-68
2022/12/10 02:47:00;;;;;;;35.53;22.52;;;;;;;;;;5039345;28;20206;-68
2022/12/10 02:49:27;;;;;;;32.70;21.33;;;;;;;;;;5037997;28;20212;-68
2022/12/10 02:51:53;;;;;;;34.00;21.55;;;;;;;;;;5038989;28;20206;-68
2022/12/10 02:54:37;;;;;;;32.92;20.85;;;;;;;;;;5039374;28;20202;-68
2022/12/10 02:57:07;;;;;;;34.22;21.77;;;;;;;;;;5039131;28;20208;-68
2022/12/10 02:59:37;;;;;;;31.83;21.35;;;;;;;;;;5038830;28;20210;-68
2022/12/10 03:02:07;;;;;;;31.58;21.35;;;;;;;;;;5038951;28;20198;-68
2022/12/10 03:04:38;;;;;;;32.90;21.42;;;;;;;;;;5038917;28;20240;-68
2022/12/10 03:07:07;;;;;;;32.20;21.35;;;;;;;;;;5038992;28;20204;-68
2022/12/10 03:09:36;;;;;;;32.42;20.05;;;;;;;;;;5038667;28;20197;-68
2022/12/10 03:12:07;;;;;;;30.77;21.00;;;;;;;;;;5038973;28;20210;-68
2022/12/10 03:14:34;;;;;;;31.40;21.00;;;;;;;;;;5038944;28;20219;-68
2022/12/10 03:17:01;;;;;;;28.30;19.35;;;;;;;;;;5039034;28;20208;-68
2022/12/10 03:19:32;;;;;;;29.67;19.95;;;;;;;;;;5038508;28;20505;-68
2022/12/10 03:21:59;;;;;;;30.15;20.05;;;;;;;;;;5038636;28;20198;-68
2022/12/10 03:24:27;;;;;;;30.17;20.17;;;;;;;;;;5038602;28;20560;-68
2022/12/10 03:26:53;;;;;;;32.88;20.17;;;;;;;;;;5038845;28;20198;-68
2022/12/10 03:29:21;;;;;;;30.50;19.92;;;;;;;;;;5038667;28;20225;-68
2022/12/10 03:31:48;;;;;;;30.48;20.20;;;;;;;;;;5038637;28;20198;-68
2022/12/10 03:34:15;;;;;;;32.20;20.73;;;;;;;;;;5038726;28;20202;-68
2022/12/10 03:36:43;;;;;;;33.60;20.65;;;;;;;;;;5038540;28;20205;-68
2022/12/10 03:39:09;;;;;;;29.83;20.00;;;;;;;;;;5038409;28;20198;-68
2022/12/10 03:41:36;;;;;;;32.10;20.10;;;;;;;;;;5038455;28;20204;-68
2022/12/10 03:44:02;;;;;;;32.35;21.60;;;;;;;;;;5038441;28;20439;-68
2022/12/10 03:46:29;;;;;;;31.40;20.25;;;;;;;;;;5038491;28;20212;-68
2022/12/10 03:48:56;;;;;;;27.95;18.95;;;;;;;;;;5038175;28;20206;-68
2022/12/10 03:51:22;;;;;;;29.17;19.77;;;;;;;;;;5038388;28;20198;-68
2022/12/10 03:53:50;;;;;;;31.08;20.35;;;;;;;;;;5038403;28;20518;-68
2022/12/10 03:56:17;;;;;;;24.90;18.55;;;;;;;;;;5038406;28;20322;-68
2022/12/10 03:58:43;;;;;;;30.95;20.40;;;;;;;;;;5038175;28;20205;-68
2022/12/10 04:01:10;;;;;;;34.70;22.05;;;;;;;;;;5039708;28;20366;-68
2022/12/10 04:03:36;;;;;;;36.97;23.45;;;;;;;;;;5041518;28;20381;-68
2022/12/10 04:06:03;;;;;;;33.72;22.48;;;;;;;;;;5041598;28;20198;-68
2022/12/10 04:08:30;;;;;;;34.58;23.35;;;;;;;;;;5041342;28;20212;-68
2022/12/10 04:11:01;;;;;;;34.20;22.35;;;;;;;;;;5041801;28;20269;-68
2022/12/10 04:16:27;;;;;;;33.13;21.05;;;;;;;;;;5041880;28;20241;-68
2022/12/10 04:18:53;;;;;;;29.63;20.50;;;;;;;;;;5041484;28;20197;-68
2022/12/10 04:26:55;;;;;;;30.38;19.83;;;;;;;;;;5041219;28;20204;-68
2022/12/10 04:29:22;;;;;;;28.30;19.77;;;;;;;;;;5041030;28;20245;-68
2022/12/10 04:31:48;;;;;;;31.48;20.25;;;;;;;;;;5041209;28;20198;-68
2022/12/10 04:34:15;;;;;;;28.13;20.10;;;;;;;;;;5041244;28;20216;-68
2022/12/10 04:36:41;;;;;;;28.23;18.85;;;;;;;;;;5041231;28;20205;-69
2022/12/10 04:39:07;;;;;;;34.45;21.48;;;;;;;;;;5041021;27;20509;-68
2022/12/10 04:41:34;;;;;;;32.00;20.73;;;;;;;;;;5041039;28;20205;-68
2022/12/10 04:44:01;;;;;;;29.90;19.45;;;;;;;;;;5041019;28;20231;-68
2022/12/10 04:46:28;;;;;;;29.88;20.13;;;;;;;;;;5041026;28;20197;-68
2022/12/10 04:48:55;;;;;;;31.10;20.83;;;;;;;;;;5040852;28;20206;-68
2022/12/10 04:51:21;;;;;;;29.33;20.15;;;;;;;;;;5040961;28;20198;-68
2022/12/10 04:53:47;;;;;;;30.67;19.83;;;;;;;;;;5041070;28;20451;-68
2022/12/10 04:56:14;;;;;;;32.35;20.58;;;;;;;;;;5040744;28;20198;-68
2022/12/10 04:58:40;;;;;;;33.97;20.95;;;;;;;;;;5040810;28;20198;-68
2022/12/10 05:01:09;;;;;;;29.45;20.00;;;;;;;;;;5040786;28;20527;-68
2022/12/10 05:03:36;;;;;;;33.50;20.92;;;;;;;;;;5040580;28;20218;-68
2022/12/10 05:06:02;;;;;;;29.88;20.02;;;;;;;;;;5041331;28;20220;-68
2022/12/10 05:08:29;;;;;;;32.38;20.48;;;;;;;;;;5040409;28;20267;-68
2022/12/10 05:10:55;;;;;;;29.40;19.73;;;;;;;;;;5040912;28;20197;-68
2022/12/10 05:13:21;;;;;;;31.92;20.50;;;;;;;;;;5040032;28;20194;-68
2022/12/10 05:15:48;;;;;;;33.78;21.00;;;;;;;;;;5040577;28;20202;-68
2022/12/10 05:18:15;;;;;;;28.13;20.95;;;;;;;;;;5040391;28;20220;-68
2022/12/10 05:20:42;;;;;;;33.15;20.80;;;;;;;;;;5040289;28;20213;-68
2022/12/10 05:25:58;;;;;;;32.47;20.45;;;;;;;;;;5040592;28;20268;-68
2022/12/10 05:28:24;;;;;;;28.45;20.00;;;;;;;;;;5040342;28;20222;-68
2022/12/10 05:30:51;;;;;;;32.63;20.75;;;;;;;;;;5040660;28;20498;-68
2022/12/10 05:33:18;;;;;;;30.73;20.13;;;;;;;;;;5040395;28;20201;-68
2022/12/10 05:35:51;;;;;;;29.77;20.40;;;;;;;;;;5040131;28;20487;-68
2022/12/10 05:38:17;;;;;;;33.25;20.63;;;;;;;;;;5040113;28;20228;-68
2022/12/10 05:40:44;;;;;;;29.73;20.80;;;;;;;;;;5040366;28;20198;-68
2022/12/10 05:43:10;;;;;;;28.77;20.20;;;;;;;;;;5039985;28;20420;-68
2022/12/10 05:45:36;;;;;;;27.63;18.98;;;;;;;;;;5040049;28;20197;-68
2022/12/10 05:48:03;;;;;;;28.67;19.40;;;;;;;;;;5039707;28;20360;-68
2022/12/10 05:50:31;;;;;;;30.42;20.10;;;;;;;;;;5040297;28;20198;-68
2022/12/10 05:52:57;;;;;;;30.98;21.02;;;;;;;;;;5040150;28;20271;-68
2022/12/10 05:55:24;;;;;;;32.45;21.05;;;;;;;;;;5040069;28;20478;-68
2022/12/10 05:57:51;;;;;;;29.20;20.48;;;;;;;;;;5039787;28;20493;-68
2022/12/10 06:00:17;;;;;;;32.90;21.45;;;;;;;;;;5039728;28;20212;-68
2022/12/10 06:02:43;;;;;;;34.30;21.48;;;;;;;;;;5039704;28;20221;-68
2022/12/10 06:05:10;;;;;;;33.22;21.45;;;;;;;;;;5039667;28;20221;-68
2022/12/10 06:07:38;;;;;;;29.42;20.45;;;;;;;;;;5039712;28;20204;-68
2022/12/10 06:10:04;;;;;;;31.30;20.30;;;;;;;;;;5040005;28;20197;-68
2022/12/10 06:12:30;;;;;;;29.83;21.55;;;;;;;;;;5039792;28;20206;-68
2022/12/10 06:14:57;;;;;;;31.08;21.20;;;;;;;;;;5039751;28;20211;-68
2022/12/10 06:17:23;;;;;;;29.38;20.55;;;;;;;;;;5039392;28;20206;-68
2022/12/10 06:19:49;;;;;;;31.05;20.77;;;;;;;;;;5039569;28;20532;-68
2022/12/10 06:22:16;;;;;;;33.65;20.98;;;;;;;;;;5039684;28;20204;-68
2022/12/10 06:24:43;;;;;;;30.75;21.15;;;;;;;;;;5039471;28;20217;-68
2022/12/10 06:27:10;;;;;;;29.95;20.58;;;;;;;;;;5039381;28;20201;-68
2022/12/10 06:29:36;;;;;;;30.55;21.10;;;;;;;;;;5039137;28;20197;-68
2022/12/10 06:32:02;;;;;;;35.58;21.40;;;;;;;;;;5039304;28;20205;-68
2022/12/10 06:34:29;;;;;;;30.35;21.15;;;;;;;;;;5039510;28;20193;-68
2022/12/10 06:36:55;;;;;;;32.55;21.83;;;;;;;;;;5039602;28;20198;-68
2022/12/10 06:39:21;;;;;;;29.23;20.45;;;;;;;;;;5039254;28;20205;-68
2022/12/10 06:41:49;;;;;;;32.78;21.17;;;;;;;;;;5039228;28;20430;-68
2022/12/10 06:44:15;;;;;;;29.15;20.73;;;;;;;;;;5039336;28;20222;-70
2022/12/10 06:46:42;;;;;;;33.10;22.02;;;;;;;;;;5039481;28;20227;-70
2022/12/10 06:49:08;;;;;;;36.85;23.10;;;;;;;;;;5038917;28;20211;-70
2022/12/10 06:51:35;;;;;;;31.45;21.30;;;;;;;;;;5039339;28;20208;-70
2022/12/10 06:54:01;;;;;;;30.02;21.83;;;;;;;;;;5039033;28;20198;-70
2022/12/10 06:56:27;;;;;;;28.92;21.30;;;;;;;;;;5039161;28;20197;-70
2022/12/10 06:58:55;;;;;;;31.38;22.08;;;;;;;;;;5038666;28;20204;-70
2022/12/10 07:01:22;;;;;;;30.85;21.98;;;;;;;;;;5039279;28;20389;-70
2022/12/10 07:03:49;;;;;;;29.08;21.25;;;;;;;;;;5039151;28;20288;-57
2022/12/10 07:06:15;;;;;;;32.50;22.42;;;;;;;;;;5038941;28;20202;-58
2022/12/10 07:08:41;;;;;;;33.65;22.88;;;;;;;;;;5038629;28;20212;-58
2022/12/10 07:11:09;;;;;;;33.28;23.50;;;;;;;;;;5038926;28;20204;-59
2022/12/10 07:13:35;;;;;;;36.20;22.90;;;;;;;;;;5038890;28;20205;-58
2022/12/10 07:16:03;;;;;;;34.13;23.13;;;;;;;;;;5039055;28;20225;-58
2022/12/10 07:18:29;;;;;;;33.88;22.40;;;;;;;;;;5038615;28;20198;-59
2022/12/10 07:20:56;;;;;;;29.77;20.67;;;;;;;;;;5038605;28;20233;-59
2022/12/10 07:23:22;;;;;;;27.73;19.83;;;;;;;;;;5038537;28;20204;-58
2022/12/10 07:25:48;;;;;;;39.90;21.60;;;;;;;;;;5038594;28;20433;-58
2022/12/10 07:28:15;;;;;;;29.25;21.05;;;;;;;;;;5038247;28;20394;-58
2022/12/10 07:30:41;;;;;;;29.75;20.92;;;;;;;;;;5039049;28;20210;-58
2022/12/10 07:33:09;;;;;;;31.20;21.23;;;;;;;;;;5038686;28;20198;-57
2022/12/10 07:35:35;;;;;;;28.75;19.58;;;;;;;;;;5039502;28;20221;-57
2022/12/10 07:38:01;;;;;;;26.23;19.42;;;;;;;;;;5041936;28;20212;-58
2022/12/10 07:40:28;;;;;;;31.30;21.08;;;;;;;;;;5041773;28;20202;-58
2022/12/10 07:42:54;;;;;;;31.90;20.83;;;;;;;;;;5042072;28;20544;-58
2022/12/10 07:45:20;;;;;;;27.73;19.30;;;;;;;;;;5042216;28;20218;-58
2022/12/10 07:47:47;;;;;;;31.35;20.55;;;;;;;;;;5041980;28;20219;-58
2022/12/10 07:50:14;;;;;;;32.22;20.65;;;;;;;;;;5041946;28;20265;-58
2022/12/10 07:52:40;;;;;;;29.88;20.73;;;;;;;;;;5041929;28;20459;-58
2022/12/10 07:55:07;;;;;;;27.13;19.27;;;;;;;;;;5041880;28;20194;-58
2022/12/10 07:57:33;;;;;;;28.70;20.23;;;;;;;;;;5042133;28;20273;-58
2022/12/10 08:00:00;;;;;;;30.73;21.02;;;;;;;;;;5042270;28;20458;-58
2022/12/10 08:02:26;;;;;;;32.20;20.98;;;;;;;;;;5042268;28;20198;-58
2022/12/10 08:04:53;;;;;;;31.00;20.50;;;;;;;;;;5042035;28;20217;-58
2022/12/10 08:07:20;;;;;;;32.10;21.58;;;;;;;;;;5041816;28;20205;-58
2022/12/10 08:09:47;;;;;;;29.80;20.48;;;;;;;;;;5041744;28;20198;-58
2022/12/10 08:12:13;;;;;;;30.45;21.50;;;;;;;;;;5041677;28;20268;-58
2022/12/10 08:14:39;;;;;;;29.70;20.30;;;;;;;;;;5041730;28;20208;-58
2022/12/10 08:17:05;;;;;;;31.13;21.38;;;;;;;;;;5041569;28;20198;-58
2022/12/10 08:19:32;;;;;;;30.95;21.10;;;;;;;;;;5041526;28;20531;-57
2022/12/10 08:21:58;;;;;;;30.10;20.48;;;;;;;;;;5041307;28;20204;-58
2022/12/10 08:24:26;;;;;;;33.65;21.02;;;;;;;;;;5041561;28;20228;-58
2022/12/10 08:26:52;;;;;;;28.95;20.75;;;;;;;;;;5041320;28;20381;-58
2022/12/10 08:29:18;;;;;;;28.02;20.10;;;;;;;;;;5041205;28;20409;-58
2022/12/10 08:31:45;;;;;;;29.00;19.30;;;;;;;;;;5041482;28;20205;-58
2022/12/10 08:34:12;;;;;;;29.70;19.23;;;;;;;;;;5041177;28;20194;-58
2022/12/10 08:36:38;;;;;;;30.58;21.23;;;;;;;;;;5041420;28;20198;-58
2022/12/10 08:39:05;;;;;;;27.77;19.85;;;;;;;;;;5040898;28;20532;-58
2022/12/10 08:41:32;;;;;;;28.73;20.20;;;;;;;;;;5041344;28;20198;-58
2022/12/10 08:43:59;;;;;;;27.67;19.48;;;;;;;;;;5040999;27;20210;-58
2022/12/10 08:46:26;;;;;;;31.55;19.88;;;;;;;;;;5040836;28;20537;-58
2022/12/10 08:48:52;;;;;;;27.42;19.88;;;;;;;;;;5039497;28;20230;-58
2022/12/10 08:51:19;;;;;;;26.55;19.50;;;;;;;;;;5040802;28;20212;-59
2022/12/10 08:53:46;;;;;;;31.92;20.83;;;;;;;;;;5040772;28;20333;-58
2022/12/10 08:56:12;;;;;;;30.73;20.85;;;;;;;;;;5040252;28;20215;-58
2022/12/10 08:58:40;;;;;;;30.05;21.00;;;;;;;;;;5040184;28;20205;-58
2022/12/10 09:01:07;;;;;;;29.52;20.30;;;;;;;;;;5040534;28;20230;-58
2022/12/10 09:03:34;;;;;;;27.25;21.08;;;;;;;;;;5040222;28;20502;-57
2022/12/10 09:06:02;;;;;;;28.00;20.92;;;;;;;;;;5040267;28;20217;-58
2022/12/10 09:08:28;;;;;;;30.15;20.67;;;;;;;;;;5040132;28;20205;-58
2022/12/10 09:10:55;;;;;;;28.42;20.83;;;;;;;;;;5040183;28;20198;-57
2022/12/10 09:13:21;;;;;;;31.90;22.02;;;;;;;;;;5040345;28;20224;-59
2022/12/10 09:15:52;;;;;;;28.08;20.35;;;;;;;;;;5040739;27;20193;-58
2022/12/10 09:18:19;;;;;;;30.27;21.58;;;;;;;;;;5039906;28;20202;-58
2022/12/10 09:20:45;;;;;;;30.00;20.15;;;;;;;;;;5040101;28;20227;-58
2022/12/10 09:23:12;;;;;;;30.33;21.08;;;;;;;;;;5040274;28;20359;-58
2022/12/10 09:25:38;;;;;;;28.83;20.38;;;;;;;;;;5040178;28;20388;-58
2022/12/10 09:28:04;;;;;;;35.53;21.55;;;;;;;;;;5039880;28;20226;-59
2022/12/10 09:30:31;;;;;;;30.95;20.88;;;;;;;;;;5040101;28;20501;-58
2022/12/10 09:32:58;;;;;;;30.25;21.50;;;;;;;;;;5039844;28;20198;-58
2022/12/10 09:35:25;;;;;;;30.25;21.02;;;;;;;;;;5040009;28;20247;-57
2022/12/10 09:37:51;;;;;;;29.92;20.45;;;;;;;;;;5022394;28;20213;-56
2022/12/10 09:40:18;;;;;;;30.13;21.05;;;;;;;;;;5029896;28;20202;-58
2022/12/10 09:42:48;;;;;;;28.08;20.08;;;;;;;;;;5034461;28;20216;-57
2022/12/10 09:45:17;;;;;;;28.77;20.40;;;;;;;;;;5034280;28;20225;-58
2022/12/10 09:47:46;;;;;;;27.92;20.33;;;;;;;;;;5033974;28;20210;-56
2022/12/10 09:50:18;;;;;;;26.90;19.42;;;;;;;;;;5034354;28;20409;-58
2022/12/10 09:52:47;;;;;;;29.50;20.58;;;;;;;;;;5037051;28;20202;-58
2022/12/10 09:55:15;;;;;;;26.30;18.70;;;;;;;;;;5037137;28;20360;-58
2022/12/10 09:57:43;;;;;;;26.33;19.00;;;;;;;;;;5036888;28;20210;-58
2022/12/10 10:00:18;;;;;;;25.20;18.65;;;;;;;;;;5036772;27;20205;-58
2022/12/10 10:02:46;;;;;;;29.52;19.70;;;;;;;;;;5036425;27;20280;-58
2022/12/10 10:05:14;;;;;;;25.67;18.83;;;;;;;;;;5037096;28;20222;-59
2022/12/10 10:07:44;;;;;;;27.63;19.25;;;;;;;;;;5037032;28;20216;-57
2022/12/10 10:10:20;;;;;;;27.23;18.90;;;;;;;;;;5036626;28;20205;-58
2022/12/10 10:12:47;;;;;;;25.65;19.67;;;;;;;;;;5036910;28;20206;-57
2022/12/10 10:15:15;;;;;;;27.70;19.90;;;;;;;;;;5036800;28;20229;-58
2022/12/10 10:17:45;;;;;;;28.58;19.08;;;;;;;;;;5036912;28;20440;-57
2022/12/10 10:20:12;;;;;;;25.42;18.65;;;;;;;;;;5036752;28;20221;-57
2022/12/10 10:22:38;;;;;;;28.65;19.75;;;;;;;;;;5036749;28;20406;-58
2022/12/10 10:25:07;;;;;;;26.20;19.48;;;;;;;;;;5036351;28;20589;-58
2022/12/10 10:27:33;;;;;;;27.38;19.00;;;;;;;;;;5036513;28;20257;-58
2022/12/10 10:30:01;;;;;;;27.13;19.13;;;;;;;;;;5036584;28;20508;-58
2022/12/10 10:32:47;;;;;;;27.88;19.00;;;;;;;;;;5036226;28;20205;-58
2022/12/10 10:35:22;;;;;;;27.02;19.38;;;;;;;;;;5036718;28;20202;-58
2022/12/10 10:37:48;;;;;;;26.77;19.13;;;;;;;;;;5036377;28;20208;-57
2022/12/10 10:40:24;;;;;;;24.35;18.15;;;;;;;;;;5036493;28;20205;-58
2022/12/10 10:42:53;;;;;;;24.90;18.00;;;;;;;;;;5036807;28;20627;-58
2022/12/10 10:45:33;;;;;;;24.05;17.83;;;;;;;;;;5036749;28;20226;-58
2022/12/10 10:48:04;;;;;;;23.88;18.20;;;;;;;;;;5036319;28;20221;-58
2022/12/10 10:50:31;;;;;;;25.45;17.75;;;;;;;;;;5036871;28;20220;-58
2022/12/10 10:52:57;;;;;;;30.15;18.77;;;;;;;;;;5036603;28;20276;-58
2022/12/10 10:55:34;;;;;;;28.70;19.38;;;;;;;;;;5036623;28;20208;-58
2022/12/10 10:58:01;;;;;;;25.92;17.92;;;;;;;;;;5035801;28;20198;-58
2022/12/10 11:00:27;;;;;;;28.95;18.98;;;;;;;;;;5024371;28;20498;-58
2022/12/10 11:02:53;;;;;;;27.55;19.05;;;;;;;;;;5016823;28;20506;-58
2022/12/10 11:05:23;;;;;;;27.80;19.55;;;;;;;;;;5016724;28;20410;-58
2022/12/10 11:07:57;;;;;;;27.15;19.20;;;;;;;;;;5016506;28;20237;-58
2022/12/10 11:10:25;;;;;;;26.10;18.70;;;;;;;;;;5016983;28;20206;-59
2022/12/10 11:12:56;;;;;;;26.00;18.23;;;;;;;;;;5020193;28;20208;-58
2022/12/10 11:15:30;;;;;;;27.38;19.17;;;;;;;;;;5020325;28;20498;-59
2022/12/10 11:17:56;;;;;;;31.08;20.90;;;;;;;;;;5020435;28;20699;-59
2022/12/10 11:20:24;;;;;;;29.80;21.00;;;;;;;;;;5019970;28;20214;-60
2022/12/10 11:22:51;;;;;;;29.40;20.73;;;;;;;;;;5019977;28;20210;-60
2022/12/10 11:25:18;;;;;;;31.55;21.08;;;;;;;;;;5020112;28;20232;-59
2022/12/10 11:27:50;;;;;;;31.15;19.85;;;;;;;;;;5019440;28;20226;-60
2022/12/10 11:30:23;;;;;;;34.38;20.92;;;;;;;;;;5020129;28;20206;-60
2022/12/10 11:33:00;;;;;;;27.85;20.30;;;;;;;;;;5039059;28;20205;-59
2022/12/10 11:35:32;;;;;;;30.30;21.05;;;;;;;;;;5039531;28;20268;-59
2022/12/10 11:38:01;;;;;;;26.27;19.60;;;;;;;;;;5039190;28;20418;-59
2022/12/10 11:40:40;;;;;;;29.90;20.80;;;;;;;;;;5039127;28;20217;-59
2022/12/10 11:43:17;;;;;;;29.20;20.48;;;;;;;;;;5042136;28;20202;-61
2022/12/10 11:45:49;;;;;;;30.63;21.23;;;;;;;;;;5041956;28;20217;-60
2022/12/10 11:48:20;;;;;;;29.75;20.95;;;;;;;;;;5041824;28;20197;-61
2022/12/10 11:50:48;;;;;;;30.63;21.63;;;;;;;;;;5041631;28;20198;-61
2022/12/10 11:53:27;;;;;;;29.30;19.27;;;;;;;;;;5042128;28;20198;-61
2022/12/10 11:55:58;;;;;;;30.10;20.30;;;;;;;;;;5042007;28;20393;-60
2022/12/10 11:58:33;;;;;;;26.83;19.15;;;;;;;;;;5041753;28;20198;-61
2022/12/10 12:01:05;;;;;;;26.55;18.48;;;;;;;;;;5041839;27;20204;-61
2022/12/10 12:03:50;;;;;;;28.05;19.15;;;;;;;;;;5041770;28;20227;-60
2022/12/10 12:06:25;;;;;;;26.50;19.10;;;;;;;;;;5041625;28;20222;-61
2022/12/10 12:08:56;;;;;;;31.00;20.70;;;;;;;;;;5041576;28;20508;-61
2022/12/10 12:11:30;;;;;;;25.63;18.83;;;;;;;;;;5041745;27;20220;-61
2022/12/10 12:13:58;;;;;;;27.92;19.33;;;;;;;;;;5041869;28;20219;-60
2022/12/10 12:16:28;;;;;;;27.90;19.10;;;;;;;;;;5041764;28;20213;-60
2022/12/10 12:18:56;;;;;;;29.33;20.15;;;;;;;;;;5041431;28;20212;-61
2022/12/10 12:21:22;;;;;;;25.38;18.80;;;;;;;;;;5041225;28;20227;-61
2022/12/10 12:23:51;;;;;;;26.65;18.77;;;;;;;;;;5041253;28;20194;-60
2022/12/10 12:26:20;;;;;;;25.45;19.10;;;;;;;;;;5041907;27;20221;-61
2022/12/10 12:28:48;;;;;;;29.13;20.05;;;;;;;;;;5041090;27;20221;-61
2022/12/10 12:31:17;;;;;;;26.88;19.15;;;;;;;;;;5041390;28;20208;-61
2022/12/10 12:33:48;;;;;;;25.60;18.58;;;;;;;;;;5041333;28;20198;-60
2022/12/10 12:36:16;;;;;;;23.10;17.33;;;;;;;;;;5041214;28;20392;-61
2022/12/10 12:38:45;;;;;;;24.83;17.42;;;;;;;;;;5041441;28;20205;-61
2022/12/10 12:41:14;;;;;;;25.23;17.42;;;;;;;;;;5041205;28;20197;-60
2022/12/10 12:43:45;;;;;;;22.90;17.60;;;;;;;;;;5041209;28;20205;-61
2022/12/10 12:46:14;;;;;;;24.23;17.02;;;;;;;;;;5041433;28;20214;-61
2022/12/10 12:48:45;;;;;;;21.55;16.67;;;;;;;;;;5041021;28;20198;-60
2022/12/10 12:51:17;;;;;;;23.20;16.80;;;;;;;;;;5041166;28;20210;-61
2022/12/10 12:53:44;;;;;;;22.73;17.17;;;;;;;;;;5041115;28;20269;-62
2022/12/10 12:56:15;;;;;;;22.10;16.73;;;;;;;;;;5041161;28;20190;-61
2022/12/10 12:58:46;;;;;;;23.30;16.90;;;;;;;;;;5041204;28;20204;-61
2022/12/10 13:01:27;;;;;;;24.45;16.48;;;;;;;;;;5040976;28;20198;-61
2022/12/10 13:03:54;;;;;;;22.90;16.80;;;;;;;;;;5040757;28;20212;-61
2022/12/10 13:06:24;;;;;;;28.00;17.20;;;;;;;;;;5040887;28;20235;-61
2022/12/10 13:08:53;;;;;;;23.73;17.05;;;;;;;;;;5041029;28;20225;-60
2022/12/10 13:11:28;;;;;;;22.45;16.98;;;;;;;;;;5040643;28;20269;-61
2022/12/10 13:14:15;;;;;;;23.08;16.95;;;;;;;;;;5040545;28;20365;-61
2022/12/10 13:16:47;;;;;;;25.77;16.70;;;;;;;;;;5041071;28;20373;-61
2022/12/10 13:19:24;;;;;;;22.92;16.13;;;;;;;;;;5040550;28;20198;-61
2022/12/10 13:21:59;;;;;;;24.35;17.55;;;;;;;;;;5040684;28;20204;-61
2022/12/10 13:24:40;;;;;;;22.30;16.77;;;;;;;;;;5040714;28;20269;-61
2022/12/10 13:27:16;;;;;;;22.38;15.95;;;;;;;;;;5040279;28;20229;-61
2022/12/10 13:29:46;;;;;;;22.90;16.77;;;;;;;;;;5040477;28;20204;-61
2022/12/10 13:32:17;;;;;;;22.45;16.88;;;;;;;;;;5040490;28;20497;-60
2022/12/10 13:34:43;;;;;;;24.75;16.17;;;;;;;;;;5039381;28;20209;-61
2022/12/10 13:37:19;;;;;;;24.92;17.60;;;;;;;;;;5040781;28;20385;-61
2022/12/10 13:39:47;;;;;;;22.15;16.58;;;;;;;;;;5040566;27;20204;-61
2022/12/10 13:45:24;;;;;;;21.77;16.30;;;;;;;;;;5040088;28;20274;-61
2022/12/10 13:47:52;;;;;;;23.10;16.60;;;;;;;;;;5040091;28;20505;-61
2022/12/10 13:50:20;;;;;;;24.05;17.40;;;;;;;;;;5040269;28;20198;-60
2022/12/10 13:52:55;;;;;;;23.90;17.00;;;;;;;;;;5040262;28;20197;-61
2022/12/10 13:55:26;;;;;;;24.77;17.25;;;;;;;;;;5040530;28;20209;-61
2022/12/10 13:58:09;;;;;;;28.33;19.25;;;;;;;;;;5039951;28;20202;-60
2022/12/10 14:00:38;;;;;;;23.05;17.67;;;;;;;;;;5040137;28;20515;-61
2022/12/10 14:03:26;;;;;;;27.10;18.83;;;;;;;;;;5040035;28;20198;-61
2022/12/10 14:06:09;;;;;;;26.17;17.40;;;;;;;;;;5042728;28;20243;-61
2022/12/10 14:08:38;;;;;;;25.77;17.15;;;;;;;;;;5040085;28;20228;-61
2022/12/10 14:11:06;;;;;;;26.08;17.40;;;;;;;;;;5039976;28;20198;-61
2022/12/10 14:13:34;;;;;;;23.80;17.88;;;;;;;;;;5039914;28;20201;-61
2022/12/10 14:16:01;;;;;;;28.17;18.95;;;;;;;;;;5039802;28;20418;-61
2022/12/10 14:18:29;;;;;;;25.40;17.92;;;;;;;;;;5039408;28;20225;-61
2022/12/10 14:20:56;;;;;;;25.92;18.63;;;;;;;;;;5039884;28;20212;-61
2022/12/10 14:23:37;;;;;;;24.58;17.98;;;;;;;;;;5039599;28;20215;-61
2022/12/10 14:26:07;;;;;;;24.33;18.00;;;;;;;;;;5039618;28;20258;-61
2022/12/10 14:28:34;;;;;;;24.48;18.27;;;;;;;;;;5039313;28;20247;-61
2022/12/10 14:31:00;;;;;;;25.75;17.88;;;;;;;;;;5039607;28;20198;-61
2022/12/10 14:33:27;;;;;;;25.20;18.10;;;;;;;;;;5039470;28;20203;-61
2022/12/10 14:35:53;;;;;;;25.17;18.27;;;;;;;;;;5039409;28;20194;-61
2022/12/10 14:38:21;;;;;;;27.80;19.30;;;;;;;;;;5039347;28;20523;-61